Time;durP1;ratioP1;P1;durP2;ratioP2;P2;SDS_P1;SDS_P2;PMS_P1;PMS_P2;Temp;Humidity;BMP_temperature;BMP_pressure;BME280_temperature;BME280_humidity;BME280_pressure;Samples;Min_cycle;Max_cycle;Signal;HPM_P1;HPM_P2
2023/12/07 00:06:48;;;;;;;0.45;0.38;;;;;;;2.13;77.99;101258.06;15666017;28;20053;-52
2023/12/07 00:14:31;;;;;;;0.43;0.43;;;;;;;2.04;78.50;101249.16;15649503;28;20487;-47
2023/12/07 00:22:05;;;;;;;5.53;0.95;;;;;;;2.20;78.15;101256.53;15668581;28;20084;-52
2023/12/07 00:29:40;;;;;;;0.00;0.00;;;;;;;2.19;77.86;101254.84;15683829;28;20423;-48
2023/12/07 00:37:13;;;;;;;2.95;2.50;;;;;;;1.71;80.64;101268.97;15673884;28;20052;-50
2023/12/07 00:44:48;;;;;;;0.20;0.20;;;;;;;2.28;77.90;101261.94;15676053;28;20069;-48
2023/12/07 00:52:25;;;;;;;0.70;0.70;;;;;;;2.03;77.51;101273.97;15682710;28;20045;-48
2023/12/07 00:59:59;;;;;;;;;;;;;;;1.76;78.42;101280.81;15681566;28;20045;-52
2023/12/07 01:07:32;;;;;;;0.00;0.00;;;;;;;1.61;80.15;101298.09;15663127;28;19928;-49
2023/12/07 01:15:07;;;;;;;;;;;;;;;2.01;79.58;101308.53;15681182;28;20041;-49
2023/12/07 01:22:41;;;;;;;0.52;0.52;;;;;;;1.97;79.00;101308.97;15679957;28;20319;-49
2023/12/07 01:30:15;;;;;;;;;;;;;;;2.18;78.71;101317.56;15681097;28;20045;-49
2023/12/07 01:37:50;;;;;;;0.20;0.20;;;;;;;2.06;78.67;101336.41;15673441;28;19959;-49
2023/12/07 01:45:24;;;;;;;0.10;0.10;;;;;;;2.19;78.78;101331.63;15674029;28;20055;-47
2023/12/07 01:53:02;;;;;;;0.52;0.52;;;;;;;1.59;80.49;101342.38;15660059;28;20049;-48
2023/12/07 02:00:38;;;;;;;0.82;0.82;;;;;;;1.80;80.19;101331.66;15674732;28;20049;-49
2023/12/07 02:08:13;;;;;;;0.03;0.03;;;;;;;2.29;79.09;101337.78;15677185;28;20052;-46
2023/12/07 02:15:48;;;;;;;2.50;2.08;;;;;;;2.16;79.00;101342.53;15745367;23;20463;-46
2023/12/07 02:23:23;;;;;;;0.43;0.40;;;;;;;2.03;79.12;101337.50;15737920;28;20211;-45
2023/12/07 02:30:58;;;;;;;0.40;0.40;;;;;;;1.62;80.61;101350.03;15735940;28;20051;-50
2023/12/07 02:38:33;;;;;;;0.98;0.60;;;;;;;1.87;79.74;101353.13;15688071;28;20399;-47
2023/12/07 02:46:08;;;;;;;0.40;0.40;;;;;;;1.87;80.46;101359.25;15681586;28;20056;-47
2023/12/07 02:53:41;;;;;;;3.22;1.60;;;;;;;1.93;80.11;101368.44;15654445;28;20064;-47
2023/12/07 03:01:16;;;;;;;0.00;0.00;;;;;;;1.26;83.15;101375.28;15673965;28;20121;-46
2023/12/07 03:08:51;;;;;;;0.05;0.05;;;;;;;1.49;82.71;101375.88;15655652;28;20148;-46
2023/12/07 03:16:25;;;;;;;0.80;0.80;;;;;;;1.64;81.95;101381.66;15653831;28;20140;-47
2023/12/07 03:23:59;;;;;;;1.98;1.17;;;;;;;1.54;82.08;101384.28;15672541;28;20427;-46
2023/12/07 03:31:33;;;;;;;2.53;1.33;;;;;;;1.10;83.39;101394.28;15673302;28;20045;-50
2023/12/07 03:39:09;;;;;;;0.55;0.55;;;;;;;1.87;82.05;101398.13;15711642;28;20044;-48
2023/12/07 03:46:47;;;;;;;0.20;0.20;;;;;;;1.19;82.52;101406.72;15680697;28;20053;-47
2023/12/07 03:54:29;;;;;;;0.00;0.00;;;;;;;1.78;81.30;101400.63;15671153;28;20084;-51
2023/12/07 04:02:05;;;;;;;0.08;0.08;;;;;;;2.12;80.34;101400.22;15707190;28;20049;-49
2023/12/07 04:09:39;;;;;;;0.00;0.00;;;;;;;2.14;78.42;101392.13;15733060;28;20049;-46
2023/12/07 04:17:15;;;;;;;1.30;1.20;;;;;;;2.48;78.33;101405.81;15733125;28;20121;-47
2023/12/07 04:24:49;;;;;;;0.50;0.50;;;;;;;2.58;78.38;101408.44;15731795;28;20456;-47
2023/12/07 04:32:27;;;;;;;0.63;0.63;;;;;;;2.53;78.56;101422.13;15732081;28;20491;-47
2023/12/07 04:40:03;;;;;;;0.10;0.10;;;;;;;2.28;78.19;101428.78;15690135;28;20068;-49
2023/12/07 04:47:44;;;;;;;0.17;0.17;;;;;;;1.95;80.06;101445.91;15687389;28;20400;-47
2023/12/07 04:55:17;;;;;;;0.00;0.00;;;;;;;2.33;78.96;101436.31;15681352;28;20533;-50
2023/12/07 05:02:55;;;;;;;0.10;0.10;;;;;;;2.53;77.80;101440.66;15679773;28;20602;-47
2023/12/07 05:10:30;;;;;;;0.08;0.08;;;;;;;2.35;77.69;101443.16;15646452;28;20055;-50
2023/12/07 05:18:14;;;;;;;0.57;0.57;;;;;;;2.30;77.86;101446.25;15735821;28;20054;-47
2023/12/07 05:25:48;;;;;;;5.57;0.75;;;;;;;2.57;77.51;101444.72;15740863;28;20044;-45
2023/12/07 05:33:25;;;;;;;1.13;0.77;;;;;;;2.61;77.26;101453.19;15722568;28;20154;-51
2023/12/07 05:40:58;;;;;;;0.52;0.52;;;;;;;2.63;77.38;101459.19;15686627;28;20283;-50
2023/12/07 05:48:32;;;;;;;0.10;0.10;;;;;;;2.63;76.98;101451.25;15649357;28;20041;-51
2023/12/07 05:56:06;;;;;;;0.57;0.57;;;;;;;2.50;76.73;101462.13;15676754;28;20490;-49
2023/12/07 06:03:41;;;;;;;2.47;1.55;;;;;;;2.65;76.83;101470.47;15658721;28;20110;-48
2023/12/07 06:11:15;;;;;;;0.10;0.10;;;;;;;2.50;76.81;101468.25;15657996;28;20495;-51
2023/12/07 06:18:50;;;;;;;4.78;2.03;;;;;;;2.30;77.11;101491.28;15658933;28;20094;-46
2023/12/07 06:26:24;;;;;;;0.65;0.65;;;;;;;1.61;79.29;101499.19;15676412;28;20094;-45
2023/12/07 06:34:00;;;;;;;1.02;0.98;;;;;;;1.67;79.52;101503.09;15675664;28;20041;-46
2023/12/07 06:41:34;;;;;;;0.20;0.20;;;;;;;1.81;80.45;101512.47;15715087;28;20418;-47
2023/12/07 06:49:08;;;;;;;0.55;0.55;;;;;;;1.38;82.87;101522.31;15698957;28;20033;-47
2023/12/07 06:56:42;;;;;;;0.32;0.32;;;;;;;1.82;80.89;101522.94;15674442;28;20427;-45
2023/12/07 07:04:17;;;;;;;0.88;0.88;;;;;;;1.99;79.32;101524.09;15672650;28;20065;-46
2023/12/07 07:11:53;;;;;;;1.13;1.08;;;;;;;1.90;79.79;101525.75;15658031;28;20075;-51
2023/12/07 07:19:30;;;;;;;0.08;0.08;;;;;;;2.12;78.71;101531.81;15658008;28;20220;-50
2023/12/07 07:27:03;;;;;;;0.90;0.55;;;;;;;2.03;79.40;101539.56;15637888;28;20450;-51
2023/12/07 07:34:39;;;;;;;0.30;0.30;;;;;;;2.00;80.50;101539.00;15654496;28;20041;-49
2023/12/07 07:42:12;;;;;;;1.70;1.60;;;;;;;2.54;77.82;101543.84;15716227;28;20052;-51
2023/12/07 07:49:47;;;;;;;0.28;0.28;;;;;;;2.52;77.99;101542.34;15691025;28;20094;-45
2023/12/07 07:57:20;;;;;;;0.25;0.25;;;;;;;2.58;77.86;101530.34;15671499;28;20382;-48
2023/12/07 08:04:55;;;;;;;7.55;0.75;;;;;;;2.80;77.03;101540.69;15673181;28;20041;-49
2023/12/07 08:12:28;;;;;;;0.73;0.73;;;;;;;2.61;76.96;101551.25;15701654;23;20040;-49
2023/12/07 08:20:05;;;;;;;0.00;0.00;;;;;;;2.34;78.57;101558.06;15802670;28;20435;-47
2023/12/07 08:27:39;;;;;;;0.63;0.50;;;;;;;2.62;78.07;101563.53;15783536;28;20123;-51
2023/12/07 08:35:14;;;;;;;0.25;0.25;;;;;;;2.43;78.89;101565.19;15803545;28;20093;-50
2023/12/07 08:42:48;;;;;;;1.15;0.80;;;;;;;2.36;79.17;101537.56;15785201;28;20046;-50
2023/12/07 08:50:23;;;;;;;0.38;0.38;;;;;;;1.91;80.35;101583.03;15790212;28;20071;-51
2023/12/07 08:57:56;;;;;;;0.82;0.77;;;;;;;1.85;81.11;101583.53;15783081;28;20440;-48
2023/12/07 09:05:31;;;;;;;0.00;0.00;;;;;;;2.16;79.40;101584.38;15782699;28;20065;-49
2023/12/07 09:13:05;;;;;;;0.88;0.85;;;;;;;2.02;81.02;101588.22;15782289;28;20051;-49
2023/12/07 09:20:45;;;;;;;2.60;1.25;;;;;;;2.47;80.24;101585.16;15802444;28;20036;-50
2023/12/07 09:28:18;;;;;;;2.78;1.05;;;;;;;1.37;83.68;101601.81;15779187;28;20098;-49
2023/12/07 09:35:53;;;;;;;0.25;0.25;;;;;;;1.53;82.06;101595.06;15780404;28;20152;-51
2023/12/07 09:43:26;;;;;;;0.20;0.20;;;;;;;1.71;81.98;101605.91;15799565;28;20044;-49
2023/12/07 09:51:01;;;;;;;;;;;;;;;2.23;81.35;101608.47;15787719;28;20048;-51
2023/12/07 09:58:35;;;;;;;0.08;0.08;;;;;;;1.74;82.26;101613.59;15779357;28;20050;-49
2023/12/07 10:06:10;;;;;;;0.10;0.10;;;;;;;2.38;81.71;101606.28;15777472;28;20060;-49
2023/12/07 10:13:43;;;;;;;5.97;1.65;;;;;;;2.15;81.10;101597.75;15795217;28;20051;-50
2023/12/07 10:21:32;;;;;;;0.15;0.15;;;;;;;2.12;81.83;101593.53;15793557;28;20036;-51
2023/12/07 10:29:06;;;;;;;0.88;0.57;;;;;;;2.02;81.98;101593.50;15795927;28;20150;-49
2023/12/07 10:36:41;;;;;;;0.22;0.22;;;;;;;1.82;82.10;101593.53;15793968;28;20524;-51
2023/12/07 10:44:22;;;;;;;1.80;0.82;;;;;;;2.09;81.66;101598.25;15799974;28;20055;-50
2023/12/07 10:52:01;;;;;;;0.45;0.45;;;;;;;2.03;81.72;101599.66;15793543;28;20529;-49
2023/12/07 10:59:38;;;;;;;0.00;0.00;;;;;;;1.78;82.39;101585.91;15792343;28;20105;-48
2023/12/07 11:07:23;;;;;;;0.45;0.45;;;;;;;1.96;82.23;101593.22;15789319;28;20123;-48
2023/12/07 11:14:56;;;;;;;3.63;2.05;;;;;;;2.13;82.10;101581.97;15789033;28;20040;-48
2023/12/07 11:22:32;;;;;;;0.90;0.40;;;;;;;1.99;81.74;101567.28;15789555;28;20253;-49
2023/12/07 11:30:06;;;;;;;1.13;0.68;;;;;;;2.64;81.01;101574.84;15769454;28;20052;-52
2023/12/07 11:38:09;;;;;;;1.95;1.85;;;;;;;2.60;80.57;101571.63;15786173;28;20127;-46
2023/12/07 11:45:48;;;;;;;2.93;2.73;;;;;;;2.12;81.16;101576.81;15771243;28;20056;-49
2023/12/07 11:53:24;;;;;;;0.45;0.45;;;;;;;2.56;81.40;101549.00;15791491;28;20401;-49
2023/12/07 12:00:58;;;;;;;0.17;0.17;;;;;;;2.45;80.53;101560.59;15793425;28;20565;-48
2023/12/07 12:08:32;;;;;;;2.72;2.40;;;;;;;2.44;79.86;101566.88;15774423;28;20068;-54
2023/12/07 12:16:07;;;;;;;1.58;1.23;;;;;;;2.93;79.74;101561.59;15788422;28;20074;-49
2023/12/07 12:23:44;;;;;;;2.03;1.58;;;;;;;2.89;79.91;101566.34;15787235;28;20093;-52
2023/12/07 12:31:19;;;;;;;0.60;0.60;;;;;;;2.76;80.50;101568.44;15769083;28;20173;-49
2023/12/07 12:38:53;;;;;;;0.20;0.20;;;;;;;2.38;81.24;101563.91;15786943;28;20044;-53
2023/12/07 12:46:27;;;;;;;0.68;0.68;;;;;;;3.14;79.44;101556.97;15794220;28;20058;-49
2023/12/07 12:54:01;;;;;;;;;;;;;;;3.11;79.39;101553.75;15788306;28;20040;-47
2023/12/07 13:01:40;;;;;;;1.52;1.42;;;;;;;2.54;81.04;101550.97;15790377;28;20170;-48
2023/12/07 13:09:16;;;;;;;0.52;0.52;;;;;;;2.77;80.98;101549.72;15798081;28;20188;-49
2023/12/07 13:16:50;;;;;;;1.05;1.05;;;;;;;2.47;83.08;101558.66;15797966;28;20097;-50
2023/12/07 13:24:25;;;;;;;7.45;1.08;;;;;;;2.48;82.70;101565.63;15796825;28;20071;-52
2023/12/07 13:32:02;;;;;;;1.55;1.30;;;;;;;2.28;83.47;101569.19;15798545;28;20033;-49
2023/12/07 13:39:38;;;;;;;0.70;0.70;;;;;;;2.67;82.72;101556.84;15797283;28;20040;-47
2023/12/07 13:47:11;;;;;;;5.13;2.85;;;;;;;2.52;83.00;101561.72;15795730;28;20108;-49
2023/12/07 13:54:46;;;;;;;0.55;0.40;;;;;;;3.14;81.08;101554.31;15776980;28;20494;-51
2023/12/07 14:02:19;;;;;;;0.75;0.60;;;;;;;3.27;79.88;101568.13;15794044;28;20450;-49
2023/12/07 14:09:59;;;;;;;2.83;2.55;;;;;;;3.28;80.12;101561.00;15780791;22;20044;-50
2023/12/07 14:17:37;;;;;;;11.52;0.75;;;;;;;3.52;79.52;101565.81;15614626;28;20076;-50
2023/12/07 14:25:12;;;;;;;1.17;1.00;;;;;;;3.49;78.94;101568.75;15553933;28;20044;-49
2023/12/07 14:32:51;;;;;;;2.00;1.77;;;;;;;3.45;78.58;101565.59;15552410;28;20037;-48
2023/12/07 14:40:27;;;;;;;0.10;0.10;;;;;;;2.78;79.95;101577.06;15533117;28;20052;-48
2023/12/07 14:48:01;;;;;;;1.98;1.77;;;;;;;2.93;79.53;101562.41;15533680;28;20062;-51
2023/12/07 14:55:37;;;;;;;0.30;0.30;;;;;;;2.66;80.96;101570.22;15550673;28;20128;-47
2023/12/07 15:03:11;;;;;;;0.30;0.30;;;;;;;2.85;79.41;101572.91;15550530;28;20077;-48
2023/12/07 15:10:46;;;;;;;0.30;0.30;;;;;;;2.76;80.26;101573.75;15550113;28;20053;-47
2023/12/07 15:18:20;;;;;;;2.17;2.08;;;;;;;2.93;79.71;101565.06;15550451;28;20045;-48
2023/12/07 15:25:56;;;;;;;0.60;0.60;;;;;;;2.57;80.53;101565.78;15548249;28;20461;-50
2023/12/07 15:33:30;;;;;;;2.33;1.38;;;;;;;2.69;80.67;101572.59;15548513;28;20072;-47
2023/12/07 15:41:06;;;;;;;0.35;0.35;;;;;;;2.99;79.75;101574.31;15529736;28;20467;-49
2023/12/07 15:48:40;;;;;;;4.80;1.02;;;;;;;2.71;80.07;101568.84;15547694;28;20440;-48
2023/12/07 15:56:15;;;;;;;0.00;0.00;;;;;;;3.05;79.35;101566.59;15529129;28;20053;-48
2023/12/07 16:03:50;;;;;;;1.17;0.65;;;;;;;2.91;80.13;101576.81;15529921;28;20041;-47
2023/12/07 16:11:25;;;;;;;1.88;1.73;;;;;;;2.91;79.35;101576.81;15547173;28;20508;-48
2023/12/07 16:19:01;;;;;;;0.40;0.40;;;;;;;2.46;80.91;101564.06;15546851;28;20504;-51
2023/12/07 16:26:37;;;;;;;0.80;0.80;;;;;;;2.99;80.51;101561.88;15528588;28;20464;-49
2023/12/07 16:34:12;;;;;;;12.82;2.83;;;;;;;3.15;79.94;101563.94;15536153;28;20137;-51
2023/12/07 16:41:47;;;;;;;0.10;0.10;;;;;;;3.02;79.56;101574.00;15558226;28;20042;-52
2023/12/07 16:49:22;;;;;;;0.75;0.70;;;;;;;3.35;78.88;101566.56;15557654;28;20448;-50
2023/12/07 16:56:57;;;;;;;0.93;0.85;;;;;;;3.21;79.57;101570.50;15556927;28;20045;-51
2023/12/07 17:04:31;;;;;;;0.38;0.38;;;;;;;3.29;79.38;101574.13;15571160;28;20468;-48
2023/12/07 17:12:06;;;;;;;0.20;0.20;;;;;;;3.13;78.67;101575.69;15600102;28;20152;-50
2023/12/07 17:19:42;;;;;;;1.13;0.73;;;;;;;3.03;79.53;101567.72;15568873;28;20050;-49
2023/12/07 17:27:16;;;;;;;0.20;0.20;;;;;;;2.99;79.52;101577.78;15537950;28;20085;-48
2023/12/07 17:34:53;;;;;;;0.05;0.05;;;;;;;2.76;80.09;101594.94;15539300;28;20149;-49
2023/12/07 17:42:31;;;;;;;0.30;0.30;;;;;;;2.58;80.83;101605.38;15555325;28;20148;-50
2023/12/07 17:50:05;;;;;;;2.03;1.85;;;;;;;2.71;80.55;101587.41;15553240;28;20041;-47
2023/12/07 17:57:42;;;;;;;4.68;1.45;;;;;;;2.98;79.32;101599.97;15554585;28;20045;-49
2023/12/07 18:05:16;;;;;;;1.58;1.42;;;;;;;2.73;80.20;101579.31;15553832;28;20093;-47
2023/12/07 18:12:51;;;;;;;1.25;0.60;;;;;;;2.92;78.99;101558.09;15554384;28;20068;-51
2023/12/07 18:20:25;;;;;;;0.77;0.77;;;;;;;3.13;78.48;101557.13;15534814;28;20045;-47
2023/12/07 18:28:00;;;;;;;0.47;0.47;;;;;;;3.23;77.95;101574.69;15552975;28;20045;-47
2023/12/07 18:35:35;;;;;;;0.63;0.63;;;;;;;2.92;78.61;101575.81;15519007;28;20037;-50
2023/12/07 18:43:10;;;;;;;0.40;0.40;;;;;;;2.73;78.61;101555.44;15552788;28;20041;-45
2023/12/07 18:50:43;;;;;;;0.00;0.00;;;;;;;3.13;78.00;101549.16;15541264;28;20048;-47
2023/12/07 18:58:22;;;;;;;3.70;2.40;;;;;;;3.24;77.53;101536.56;15552036;28;20045;-46
2023/12/07 19:05:55;;;;;;;0.63;0.63;;;;;;;3.00;78.84;101533.53;15549747;28;20084;-48
2023/12/07 19:13:29;;;;;;;0.10;0.10;;;;;;;3.06;78.49;101535.63;15548957;28;20104;-47
2023/12/07 19:21:03;;;;;;;0.73;0.73;;;;;;;3.05;78.10;101531.28;15530838;28;20229;-47
2023/12/07 19:28:38;;;;;;;0.38;0.38;;;;;;;2.74;79.08;101535.91;15530848;28;20054;-49
2023/12/07 19:36:13;;;;;;;1.55;0.63;;;;;;;3.03;78.12;101515.53;15507060;28;20068;-48
2023/12/07 19:43:47;;;;;;;2.20;1.48;;;;;;;2.34;80.51;101509.56;15532603;28;20417;-50
2023/12/07 19:51:21;;;;;;;0.57;0.57;;;;;;;3.06;78.51;101501.97;15525580;28;20042;-48
2023/12/07 19:58:55;;;;;;;;;;;;;;;2.96;78.83;101493.19;15550340;28;20468;-50
2023/12/07 20:06:31;;;;;;;0.45;0.45;;;;;;;3.00;78.22;101483.16;15546428;28;19929;-49
2023/12/07 20:14:06;;;;;;;0.80;0.80;;;;;;;2.91;78.84;101462.78;15668908;22;20494;-44
2023/12/07 20:21:42;;;;;;;0.22;0.22;;;;;;;2.21;80.91;101462.13;15739233;28;20101;-44
2023/12/07 20:29:17;;;;;;;3.83;1.90;;;;;;;2.77;78.45;101461.41;15730271;28;20320;-48
2023/12/07 20:36:52;;;;;;;0.28;0.28;;;;;;;2.83;78.84;101455.53;15736847;28;20590;-46
2023/12/07 20:44:26;;;;;;;;;;;;;;;2.75;79.16;101466.88;15737587;28;20036;-46
2023/12/07 20:52:00;;;;;;;0.10;0.10;;;;;;;2.26;81.03;101459.91;15736937;28;19955;-46
2023/12/07 20:59:36;;;;;;;1.30;1.27;;;;;;;2.14;81.37;101445.94;15729765;28;20056;-45
2023/12/07 21:07:09;;;;;;;0.10;0.10;;;;;;;1.50;84.82;101439.28;15735466;28;20182;-54
2023/12/07 21:14:43;;;;;;;0.73;0.73;;;;;;;1.92;83.52;101440.91;15736131;28;20040;-47
2023/12/07 21:22:17;;;;;;;0.95;0.95;;;;;;;2.12;82.67;101441.75;15701209;28;20561;-46
2023/12/07 21:29:51;;;;;;;2.38;1.73;;;;;;;1.92;82.89;101438.25;15736942;28;20380;-49
2023/12/07 21:37:24;;;;;;;0.15;0.15;;;;;;;2.24;81.50;101440.66;15734400;28;20392;-50
2023/12/07 21:45:00;;;;;;;0.60;0.60;;;;;;;2.37;80.82;101443.84;15733819;28;20118;-48
2023/12/07 21:52:33;;;;;;;1.48;1.00;;;;;;;2.53;81.18;101430.91;15734359;28;20078;-44
2023/12/07 22:00:09;;;;;;;;;;;;;;;2.61;79.96;101430.19;15716054;28;20463;-45
2023/12/07 22:07:51;;;;;;;1.73;1.58;;;;;;;1.84;82.70;101416.94;15733667;28;19966;-49
2023/12/07 22:15:29;;;;;;;2.72;0.75;;;;;;;1.68;83.51;101407.72;15732613;28;20040;-50
2023/12/07 22:23:02;;;;;;;5.10;2.17;;;;;;;2.18;83.06;101412.91;15733142;28;20505;-48
2023/12/07 22:30:38;;;;;;;3.35;1.95;;;;;;;1.77;83.11;101388.38;15710848;28;20129;-48
2023/12/07 22:38:13;;;;;;;0.15;0.15;;;;;;;2.46;80.80;101411.22;15702818;28;20206;-46
2023/12/07 22:45:48;;;;;;;;;;;;;;;2.35;81.47;101406.09;15710562;28;20178;-52
2023/12/07 22:53:21;;;;;;;0.73;0.55;;;;;;;2.25;80.76;101414.03;15729366;28;19925;-46
2023/12/07 23:00:56;;;;;;;0.15;0.15;;;;;;;1.81;82.34;101406.59;15728551;28;20383;-52
2023/12/07 23:08:29;;;;;;;1.25;0.63;;;;;;;1.89;81.96;101399.66;15729141;28;20395;-46
2023/12/07 23:16:04;;;;;;;4.13;1.95;;;;;;;1.59;83.81;101389.16;15709771;28;20105;-47
2023/12/07 23:23:39;;;;;;;1.00;1.00;;;;;;;1.37;83.76;101379.63;15727343;28;20485;-53
2023/12/07 23:31:17;;;;;;;0.52;0.52;;;;;;;0.94;86.13;101367.50;15719113;28;20490;-48
2023/12/07 23:38:50;;;;;;;1.27;1.00;;;;;;;1.36;84.66;101344.41;15707472;28;20371;-45
2023/12/07 23:46:28;;;;;;;1.95;1.60;;;;;;;1.56;84.49;101328.56;15719496;28;20070;-49
2023/12/07 23:54:01;;;;;;;0.70;0.70;;;;;;;0.89;86.31;101316.84;15726119;28;20364;-47
